createdAt,value
2022-12-11T00:00:53.223Z,97773.00
2022-12-11T00:06:20.177Z,97770.95
2022-12-11T00:11:24.041Z,97764.35
2022-12-11T00:16:28.352Z,97765.11
2022-12-11T00:21:35.491Z,97760.51
2022-12-11T00:26:39.297Z,97758.17
2022-12-11T00:31:43.187Z,97747.96
2022-12-11T00:36:46.913Z,97743.75
2022-12-11T00:41:57.138Z,97738.91
2022-12-11T00:47:03.466Z,97731.64
2022-12-11T00:52:07.708Z,97729.25
2022-12-11T00:57:11.615Z,97721.55
2022-12-11T01:02:15.839Z,97725.49
2022-12-11T01:07:24.382Z,97723.73
2022-12-11T01:12:29.172Z,97720.69
2022-12-11T01:17:36.599Z,97723.98
2022-12-11T01:22:40.864Z,97726.67
2022-12-11T01:27:50.214Z,97724.81
2022-12-11T01:33:02.022Z,97724.27
2022-12-11T01:38:11.074Z,97724.31
2022-12-11T01:43:16.228Z,97719.59
2022-12-11T01:48:27.934Z,97716.10
2022-12-11T01:53:37.430Z,97718.91
2022-12-11T01:58:50.276Z,97717.70
2022-12-11T02:03:56.410Z,97713.72
2022-12-11T02:09:01.463Z,97702.71
2022-12-11T02:14:46.868Z,97703.98
2022-12-11T02:20:11.156Z,97696.05
2022-12-11T02:26:00.555Z,97689.48
2022-12-11T02:31:10.167Z,97690.80
2022-12-11T02:36:18.655Z,97687.80
2022-12-11T02:41:24.728Z,97685.11
2022-12-11T02:46:30.081Z,97680.65
2022-12-11T02:51:41.585Z,97686.54
2022-12-11T02:57:03.020Z,97677.05
2022-12-11T03:02:07.990Z,97679.55
2022-12-11T03:07:32.268Z,97683.23
2022-12-11T03:12:39.596Z,97683.27
2022-12-11T03:18:06.217Z,97676.39
2022-12-11T03:23:22.077Z,97669.36
2022-12-11T03:28:44.738Z,97663.98
2022-12-11T03:33:53.710Z,97657.77
2022-12-11T03:39:08.467Z,97652.45
2022-12-11T03:44:33.347Z,97644.70
2022-12-11T03:49:45.471Z,97640.77
2022-12-11T03:54:51.315Z,97628.86
2022-12-11T04:00:19.176Z,97633.96
2022-12-11T04:05:23.165Z,97630.23
2022-12-11T04:10:29.800Z,97634.85
2022-12-11T04:15:34.688Z,97631.30
2022-12-11T04:20:57.290Z,97627.40
2022-12-11T04:26:11.544Z,97626.25
2022-12-11T04:31:20.463Z,97623.92
2022-12-11T04:36:40.671Z,97629.48
2022-12-11T04:41:48.224Z,97628.91
2022-12-11T04:46:52.071Z,97630.40
2022-12-11T05:03:01.165Z,97622.56
2022-12-11T05:08:06.643Z,97622.35
2022-12-11T05:13:11.772Z,97616.28
2022-12-11T05:18:16.318Z,97612.52
2022-12-11T05:23:23.384Z,97612.09
2022-12-11T05:28:30.054Z,97607.40
2022-12-11T05:33:34.570Z,97604.23
2022-12-11T05:38:38.688Z,97595.77
2022-12-11T05:43:45.520Z,97600.21
2022-12-11T05:54:12.031Z,97592.55
2022-12-11T05:59:19.979Z,97585.55
2022-12-11T06:04:27.449Z,97576.05
2022-12-11T06:09:36.397Z,97568.16
2022-12-11T06:14:53.181Z,97573.81
2022-12-11T06:19:59.529Z,97575.69
2022-12-11T06:40:43.113Z,97592.70
2022-12-11T06:56:42.658Z,97603.94
2022-12-11T07:07:57.500Z,97601.63
2022-12-11T07:13:04.989Z,97600.33
2022-12-11T07:18:14.643Z,97605.27
2022-12-11T07:23:24.849Z,97604.89
2022-12-11T07:28:28.976Z,97604.80
2022-12-11T07:39:06.122Z,97597.69
2022-12-11T07:44:10.392Z,97613.11
2022-12-11T07:49:17.692Z,97615.16
2022-12-11T07:54:34.999Z,97615.71
2022-12-11T07:59:42.233Z,97615.66
2022-12-11T08:04:55.510Z,97602.66
2022-12-11T08:10:04.526Z,97618.30
2022-12-11T08:15:10.491Z,97620.42
2022-12-11T08:20:20.113Z,97621.67
2022-12-11T08:25:27.324Z,97610.33
2022-12-11T08:30:56.174Z,97612.83
2022-12-11T08:36:04.012Z,97622.67
2022-12-11T08:41:14.552Z,97626.89
2022-12-11T08:46:17.799Z,97618.41
2022-12-11T08:51:23.293Z,97610.22
2022-12-11T08:56:27.640Z,97611.52
2022-12-11T09:01:30.788Z,97612.43
2022-12-11T09:06:33.940Z,97607.70
2022-12-11T09:11:37.948Z,97615.30
2022-12-11T09:16:41.056Z,97614.96
2022-12-11T09:21:45.177Z,97615.29
2022-12-11T09:26:48.499Z,97618.70
2022-12-11T09:31:51.499Z,97622.02
2022-12-11T09:36:54.841Z,97621.73
2022-12-11T09:42:20.824Z,97622.77
2022-12-11T09:47:56.702Z,97612.52
2022-12-11T09:53:03.366Z,97607.23
2022-12-11T09:58:27.846Z,97607.25
2022-12-11T10:03:43.190Z,97597.92
2022-12-11T10:09:01.159Z,97597.02
2022-12-11T10:14:30.593Z,97593.34
2022-12-11T10:19:37.075Z,97594.87
2022-12-11T10:30:40.161Z,97598.98
2022-12-11T10:35:57.742Z,97599.56
2022-12-11T10:41:10.628Z,97598.63
2022-12-11T10:46:21.107Z,97592.50
2022-12-11T10:51:32.995Z,97595.32
2022-12-11T10:56:38.766Z,97592.23
2022-12-11T11:01:47.922Z,97589.83
2022-12-11T11:07:45.351Z,97585.60
2022-12-11T11:12:50.697Z,97582.51
2022-12-11T11:17:57.693Z,97577.60
2022-12-11T11:23:14.616Z,97582.31
2022-12-11T11:28:27.660Z,97579.67
2022-12-11T11:33:33.476Z,97570.53
2022-12-11T11:38:59.172Z,97572.45
2022-12-11T11:44:07.450Z,97584.49
2022-12-11T11:49:23.759Z,97586.94
2022-12-11T11:54:51.526Z,97589.30
2022-12-11T12:00:09.933Z,97584.92
2022-12-11T12:05:20.392Z,97574.41
2022-12-11T12:10:35.155Z,97572.58
2022-12-11T12:15:55.141Z,97576.21
2022-12-11T12:21:14.704Z,97576.17
2022-12-11T12:26:30.393Z,97574.96
2022-12-11T12:32:00.917Z,97578.38
2022-12-11T12:37:22.430Z,97573.60
2022-12-11T12:42:43.117Z,97583.13
2022-12-11T12:47:53.188Z,97579.23
2022-12-11T12:53:01.148Z,97580.59
2022-12-11T12:58:30.730Z,97572.84
2022-12-11T13:04:07.336Z,97571.35
2022-12-11T13:09:27.735Z,97581.05
2022-12-11T13:20:14.871Z,97603.50
2022-12-11T13:26:02.434Z,97610.60
2022-12-11T13:38:13.532Z,97630.62
2022-12-11T13:43:20.438Z,97631.08
2022-12-11T13:48:32.698Z,97629.83
2022-12-11T13:53:35.764Z,97631.98
2022-12-11T13:58:39.688Z,97631.70
2022-12-11T14:04:02.611Z,97631.20
2022-12-11T14:09:07.299Z,97627.79
2022-12-11T14:14:31.753Z,97626.20
2022-12-11T14:19:34.973Z,97633.60
2022-12-11T14:30:53.435Z,97631.98
2022-12-11T14:35:56.980Z,97637.73
2022-12-11T14:41:11.876Z,97636.19
2022-12-11T14:46:23.028Z,97631.92
2022-12-11T14:51:28.897Z,97645.39
2022-12-11T14:56:32.953Z,97639.60
2022-12-11T15:01:39.368Z,97641.36
2022-12-11T15:06:47.853Z,97647.22
2022-12-11T15:11:51.717Z,97644.61
2022-12-11T15:16:57.571Z,97645.40
2022-12-11T15:22:06.079Z,97650.35
2022-12-11T15:27:24.421Z,97663.46
2022-12-11T15:32:30.904Z,97670.86
2022-12-11T15:37:40.528Z,97683.23
2022-12-11T15:42:44.774Z,97696.35
2022-12-11T15:47:56.652Z,97705.02
2022-12-11T15:53:01.935Z,97713.48
2022-12-11T15:58:09.636Z,97723.01
2022-12-11T16:03:15.838Z,97719.10
2022-12-11T16:08:28.088Z,97720.75
2022-12-11T16:13:31.697Z,97724.11
2022-12-11T16:18:35.534Z,97723.63
2022-12-11T16:23:39.316Z,97722.41
2022-12-11T16:28:46.497Z,97727.83
2022-12-11T16:33:50.197Z,97719.34
2022-12-11T16:38:54.462Z,97722.23
2022-12-11T16:44:01.049Z,97718.66
2022-12-11T16:49:04.814Z,97711.86
2022-12-11T16:54:08.130Z,97716.92
2022-12-11T16:59:13.426Z,97721.85
2022-12-11T17:04:18.434Z,97716.04
2022-12-11T17:09:21.492Z,97716.78
2022-12-11T17:20:31.287Z,97720.48
2022-12-11T17:26:03.582Z,97724.80
2022-12-11T17:31:10.797Z,97726.55
2022-12-11T17:36:20.897Z,97732.02
2022-12-11T17:41:24.465Z,97724.29
2022-12-11T17:46:27.718Z,97727.48
2022-12-11T17:51:30.884Z,97736.80
2022-12-11T17:56:36.255Z,97739.27
2022-12-11T18:01:39.384Z,97740.08
2022-12-11T18:06:42.553Z,97744.03
2022-12-11T18:11:45.608Z,97754.70
2022-12-11T18:16:48.935Z,97755.36
2022-12-11T18:21:52.100Z,97750.10
2022-12-11T18:26:55.131Z,97752.77
2022-12-11T18:31:58.270Z,97756.31
2022-12-11T18:37:02.796Z,97751.39
2022-12-11T18:42:33.883Z,97749.62
2022-12-11T18:47:29.747Z,97744.80
2022-12-11T18:52:33.337Z,97744.76
2022-12-11T18:57:49.539Z,97753.02
2022-12-11T19:08:52.461Z,97758.38
2022-12-11T19:14:12.244Z,97752.82
2022-12-11T19:20:40.270Z,97744.22
2022-12-11T19:31:33.485Z,97731.65
2022-12-11T19:36:43.706Z,97738.60
2022-12-11T19:41:47.383Z,97733.30
2022-12-11T19:46:50.599Z,97730.38
2022-12-11T19:51:53.889Z,97729.07
2022-12-11T19:56:57.000Z,97723.27
2022-12-11T20:02:00.171Z,97726.66
2022-12-11T20:07:04.476Z,97717.69
2022-12-11T20:12:10.438Z,97716.58
2022-12-11T20:17:15.020Z,97719.42
2022-12-11T20:22:18.572Z,97723.91
2022-12-11T20:27:21.906Z,97727.94
2022-12-11T20:32:25.893Z,97735.52
2022-12-11T20:37:29.451Z,97743.62
2022-12-11T20:42:34.277Z,97742.33
2022-12-11T20:47:37.494Z,97745.80
2022-12-11T20:52:40.953Z,97743.70
2022-12-11T20:57:45.329Z,97738.48
2022-12-11T21:02:55.133Z,97736.96
2022-12-11T21:08:01.923Z,97732.83
2022-12-11T21:13:06.389Z,97737.34
2022-12-11T21:18:18.844Z,97745.39
2022-12-11T21:23:22.981Z,97752.94
2022-12-11T21:28:30.543Z,97753.37
2022-12-11T21:33:36.208Z,97757.96
2022-12-11T21:38:48.116Z,97757.75
2022-12-11T21:49:19.050Z,97765.81
2022-12-11T21:54:23.307Z,97774.04
2022-12-11T21:59:30.153Z,97772.40
2022-12-11T22:04:34.386Z,97770.35
2022-12-11T22:09:38.258Z,97772.01
2022-12-11T22:14:45.133Z,97768.14
2022-12-11T22:19:52.705Z,97767.80
2022-12-11T22:25:04.445Z,97770.08
2022-12-11T22:30:09.258Z,97763.70
2022-12-11T22:35:15.852Z,97754.32
2022-12-11T22:40:32.390Z,97750.02
2022-12-11T22:45:40.158Z,97749.47
2022-12-11T22:50:44.768Z,97746.49
2022-12-11T23:01:27.426Z,97750.09
2022-12-11T23:06:31.312Z,97756.28
2022-12-11T23:11:38.566Z,97755.56
2022-12-11T23:16:43.229Z,97751.50
2022-12-11T23:21:47.407Z,97750.98
2022-12-11T23:26:51.586Z,97754.14
2022-12-11T23:31:55.856Z,97756.24
2022-12-11T23:37:00.785Z,97757.66
2022-12-11T23:42:13.392Z,97756.89
2022-12-11T23:47:17.559Z,97766.36
2022-12-11T23:52:23.000Z,97763.17
2022-12-11T23:57:28.851Z,97764.66
